Terminal Aerodrome Forecast
Issued by NWS

Home | Current Version | Previous Version | Text Only | Print | Product List | Glossary On
Versions: 1 2 3 4 5 6 7 8 9 10 11 12 13
000
FTUS44 KEPZ 270526
TAFDMN
TAF
KDMN 270526Z 2706/2806 27012G20KT P6SM SCT180 SCT250
     FM270900 27007KT P6SM SCT250
     FM271800 25013G23KT P6SM FEW100 SCT250
     FM280100 28010KT P6SM SCT250=

USA.gov is the U.S. government's official web portal to all federal, state and local government web resources and services.